Time;durP1;ratioP1;P1;durP2;ratioP2;P2;SDS_P1;SDS_P2;PMS_P1;PMS_P2;Temp;Humidity;BMP_temperature;BMP_pressure;BME280_temperature;BME280_humidity;BME280_pressure;Samples;Min_cycle;Max_cycle;Signal;HPM_P1;HPM_P2
2023/03/11 00:00:21;;;;;;;;;;;;;;;14.99;65.39;99013.81;7400591;19;1031;-43
2023/03/11 00:02:50;;;;;;;;;;;;;;;14.96;65.11;99008.78;7398530;19;1847;-43
2023/03/11 00:05:20;;;;;;;;;;;;;;;14.92;65.39;99002.94;7400205;19;1045;-43
2023/03/11 00:07:48;;;;;;;;;;;;;;;14.90;65.35;99003.09;7399424;19;1121;-43
2023/03/11 00:10:21;;;;;;;;;;;;;;;14.89;65.41;98992.59;7399946;19;967;-42
2023/03/11 00:12:49;;;;;;;;;;;;;;;14.87;65.40;99015.88;7400182;19;1034;-43
2023/03/11 00:15:18;;;;;;;;;;;;;;;14.89;65.42;99014.72;7399184;19;1040;-42
2023/03/11 00:17:48;;;;;;;;;;;;;;;14.90;65.66;99028.84;7399604;19;1026;-42
2023/03/11 00:20:19;;;;;;;;;;;;;;;14.93;65.11;99025.06;7399058;19;1130;-43
2023/03/11 00:22:47;;;;;;;;;;;;;;;14.98;65.08;99015.66;7398021;19;1843;-43
2023/03/11 00:25:16;;;;;;;;;;;;;;;15.04;65.16;99023.03;7398958;19;1861;-43
2023/03/11 00:27:49;;;;;;;;;;;;;;;15.03;65.05;99010.69;7398897;19;1117;-43
2023/03/11 00:30:18;;;;;;;;;;;;;;;15.03;65.17;99017.84;7399580;19;1058;-43
2023/03/11 00:32:49;;;;;;;;;;;;;;;14.99;65.31;98998.69;7399736;19;982;-43
2023/03/11 00:35:19;;;;;;;;;;;;;;;14.95;65.06;98991.97;7398701;19;1059;-42
2023/03/11 00:37:48;;;;;;;;;;;;;;;14.97;65.12;98994.50;7399554;19;1241;-43
2023/03/11 00:40:19;;;;;;;;;;;;;;;14.94;65.22;98976.16;7399177;19;962;-43
2023/03/11 00:42:50;;;;;;;;;;;;;;;14.94;65.33;98981.47;7397608;19;1848;-43
2023/03/11 00:45:18;;;;;;;;;;;;;;;14.95;65.50;98968.03;7398249;19;1023;-42
2023/03/11 00:47:46;;;;;;;;;;;;;;;14.92;65.41;98949.69;7398188;19;1109;-43
2023/03/11 00:50:17;;;;;;;;;;;;;;;14.92;65.52;98955.00;7399006;19;1029;-43
2023/03/11 00:52:45;;;;;;;;;;;;;;;14.90;65.22;98955.19;7398029;19;1042;-42
2023/03/11 00:55:15;;;;;;;;;;;;;;;14.93;65.46;98948.72;7398856;19;967;-43
2023/03/11 00:57:43;;;;;;;;;;;;;;;15.01;65.32;98950.63;7398829;19;1058;-43
2023/03/11 01:00:17;;;;;;;;;;;;;;;15.05;64.77;98939.50;7398219;19;963;-43
2023/03/11 01:02:45;;;;;;;;;;;;;;;15.07;64.90;98926.88;7397908;19;1857;-43
2023/03/11 01:05:15;;;;;;;;;;;;;;;15.07;64.93;98931.38;7397660;19;1031;-43
2023/03/11 01:07:45;;;;;;;;;;;;;;;15.02;64.85;98907.88;7397104;19;2069;-42
2023/03/11 01:10:14;;;;;;;;;;;;;;;15.01;64.98;98906.19;7397502;19;1051;-43
2023/03/11 01:12:42;;;;;;;;;;;;;;;14.95;65.23;98912.13;7397463;19;1034;-43
2023/03/11 01:15:12;;;;;;;;;;;;;;;14.95;65.21;98911.31;7398055;19;1038;-43
2023/03/11 01:17:42;;;;;;;;;;;;;;;14.93;65.17;98919.44;7397870;19;1058;-43
2023/03/11 01:20:17;;;;;;;;;;;;;;;14.91;65.57;98906.28;7398118;19;1030;-42
2023/03/11 01:22:46;;;;;;;;;;;;;;;14.90;65.45;98903.78;7397407;19;1834;-43
2023/03/11 01:25:15;;;;;;;;;;;;;;;14.85;65.60;98884.78;7397164;19;1003;-42
2023/03/11 01:27:47;;;;;;;;;;;;;;;14.87;65.55;98893.44;7397065;19;1105;-43
2023/03/11 01:30:16;;;;;;;;;;;;;;;14.85;65.35;98890.94;7396986;19;1251;-43
2023/03/11 01:32:48;;;;;;;;;;;;;;;14.87;65.14;98896.94;7397861;19;983;-43
2023/03/11 01:35:17;;;;;;;;;;;;;;;14.95;65.25;98874.88;7397584;19;955;-43
2023/03/11 01:37:46;;;;;;;;;;;;;;;15.03;65.24;98874.94;7397643;19;1023;-43
2023/03/11 01:40:16;;;;;;;;;;;;;;;15.04;65.29;98868.63;7397542;19;954;-43
2023/03/11 01:42:45;;;;;;;;;;;;;;;14.99;65.18;98862.94;7396889;19;1832;-43
2023/03/11 01:45:28;;;;;;;;;;;;;;;15.00;65.38;98867.28;7396645;19;1126;-43
2023/03/11 01:48:00;;;;;;;;;;;;;;;14.98;65.59;98858.63;7397490;19;991;-43
2023/03/11 01:50:34;;;;;;;;;;;;;;;14.94;65.41;98853.72;7396405;19;1058;-43
2023/03/11 01:53:02;;;;;;;;;;;;;;;14.92;65.32;98856.53;7396415;19;1102;-42
2023/03/11 01:55:31;;;;;;;;;;;;;;;14.91;65.21;98850.41;7403033;19;1010;-43
2023/03/11 01:58:00;;;;;;;;;;;;;;;14.92;65.39;98859.22;7403804;19;1046;-43
2023/03/11 02:00:30;;;;;;;;;;;;;;;14.89;65.62;98848.88;7403772;19;1054;-42
2023/03/11 02:03:04;;;;;;;;;;;;;;;14.87;65.76;98843.72;7402549;19;1847;-43
2023/03/11 02:05:32;;;;;;;;;;;;;;;14.87;65.76;98829.59;7403448;19;1073;-42
2023/03/11 02:08:01;;;;;;;;;;;;;;;14.89;65.55;98851.56;7404424;19;1003;-43
2023/03/11 02:10:30;;;;;;;;;;;;;;;15.03;65.13;98861.63;7404156;19;1033;-43
2023/03/11 02:12:58;;;;;;;;;;;;;;;15.01;65.07;98852.97;7404303;19;1058;-43
2023/03/11 02:15:27;;;;;;;;;;;;;;;15.04;65.11;98859.78;7404199;19;1019;-43
2023/03/11 02:17:55;;;;;;;;;;;;;;;14.99;65.40;98848.78;7403728;19;1036;-43
2023/03/11 02:20:38;;;;;;;;;;;;;;;14.95;65.04;98844.78;7403724;19;1139;-43
2023/03/11 02:23:06;;;;;;;;;;;;;;;14.92;65.42;98835.25;7402806;19;1861;-43
2023/03/11 02:25:37;;;;;;;;;;;;;;;14.93;65.35;98839.59;7402942;19;1095;-42
2023/03/11 02:28:10;;;;;;;;;;;;;;;14.94;65.48;98840.44;7403317;19;1125;-43
2023/03/11 02:30:41;;;;;;;;;;;;;;;14.90;65.51;98845.22;7402768;19;1009;-43
2023/03/11 02:33:09;;;;;;;;;;;;;;;14.88;65.45;98825.91;7403463;19;1038;-43
2023/03/11 02:35:44;;;;;;;;;;;;;;;14.85;65.62;98810.28;7402607;19;1033;-43
2023/03/11 02:38:12;;;;;;;;;;;;;;;14.86;65.49;98820.78;7402563;19;1075;-43
2023/03/11 02:41:01;;;;;;;;;;;;;;;14.93;65.35;98826.28;7403185;19;1030;-42
2023/03/11 02:43:39;;;;;;;;;;;;;;;15.01;65.23;98810.38;7401882;19;1837;-42
2023/03/11 02:46:09;;;;;;;;;;;;;;;15.02;65.13;98820.03;7403138;19;995;-43
2023/03/11 02:48:38;;;;;;;;;;;;;;;14.99;65.18;98817.69;7403041;19;1028;-42
2023/03/11 02:51:06;;;;;;;;;;;;;;;14.96;65.44;98812.69;7402927;19;1017;-43
2023/03/11 02:53:37;;;;;;;;;;;;;;;14.92;65.55;98795.34;7402699;19;1003;-42
2023/03/11 02:56:06;;;;;;;;;;;;;;;14.92;65.63;98811.31;7402027;19;999;-43
2023/03/11 02:58:38;;;;;;;;;;;;;;;14.93;65.22;98820.97;7402335;19;1058;-43
2023/03/11 03:01:07;;;;;;;;;;;;;;;14.93;65.50;98812.16;7402511;19;1029;-43
2023/03/11 03:03:35;;;;;;;;;;;;;;;14.97;65.38;98822.31;7400508;19;1856;-42
2023/03/11 03:06:03;;;;;;;;;;;;;;;14.98;64.90;98810.69;7398602;19;1216;-42
2023/03/11 03:08:31;;;;;;;;;;;;;;;14.95;65.19;98802.19;7401459;19;1328;-43
2023/03/11 03:11:08;;;;;;;;;;;;;;;14.91;65.21;98791.03;7401451;19;1039;-43
2023/03/11 03:13:39;;;;;;;;;;;;;;;14.89;65.55;98774.38;7401357;19;1047;-42
2023/03/11 03:16:07;;;;;;;;;;;;;;;14.98;65.25;98778.75;7402159;19;1047;-42
2023/03/11 03:18:36;;;;;;;;;;;;;;;15.02;65.28;98785.44;7401160;19;1117;-43
2023/03/11 03:21:05;;;;;;;;;;;;;;;15.04;65.34;98783.44;7401035;19;1106;-43
2023/03/11 03:23:36;;;;;;;;;;;;;;;14.98;65.02;98792.06;7400890;19;1849;-42
2023/03/11 03:26:05;;;;;;;;;;;;;;;14.92;65.36;98771.38;7401703;19;1028;-43
2023/03/11 03:28:33;;;;;;;;;;;;;;;14.88;65.43;98776.22;7401061;19;1187;-43
2023/03/11 03:31:09;;;;;;;;;;;;;;;14.86;65.23;98775.53;7401632;19;1026;-43
2023/03/11 03:33:38;;;;;;;;;;;;;;;14.88;65.44;98765.56;7401328;19;1077;-43
2023/03/11 03:36:07;;;;;;;;;;;;;;;14.85;65.75;98770.38;7401234;19;1085;-43
2023/03/11 03:38:37;;;;;;;;;;;;;;;14.87;65.59;98774.53;7401411;19;959;-43
2023/03/11 03:41:05;;;;;;;;;;;;;;;14.84;65.59;98771.34;7400361;19;1039;-43
2023/03/11 03:43:34;;;;;;;;;;;;;;;14.83;65.73;98775.84;7400181;19;1838;-43
2023/03/11 03:46:04;;;;;;;;;;;;;;;14.86;65.49;98756.91;7400199;19;1126;-43
2023/03/11 03:48:36;;;;;;;;;;;;;;;14.96;65.13;98770.09;7400185;19;1047;-43
2023/03/11 03:51:06;;;;;;;;;;;;;;;14.99;65.32;98785.75;7400952;19;960;-43
2023/03/11 03:53:35;;;;;;;;;;;;;;;14.97;64.93;98771.75;7400466;19;974;-43
2023/03/11 03:56:04;;;;;;;;;;;;;;;14.96;65.30;98788.72;7399890;19;1117;-43
2023/03/11 03:58:32;;;;;;;;;;;;;;;14.92;65.44;98800.66;7402758;19;1110;-43
2023/03/11 04:01:02;;;;;;;;;;;;;;;14.93;65.43;98809.50;7399908;19;1102;-42
2023/03/11 04:03:31;;;;;;;;;;;;;;;14.87;65.24;98801.13;7399918;19;1843;-43
2023/03/11 04:06:10;;;;;;;;;;;;;;;14.86;65.61;98802.16;7399497;19;1106;-43
2023/03/11 04:08:39;;;;;;;;;;;;;;;14.87;65.67;98808.28;7399579;19;1061;-42
2023/03/11 04:11:08;;;;;;;;;;;;;;;14.85;65.41;98803.13;7399381;19;991;-42
2023/03/11 04:13:36;;;;;;;;;;;;;;;14.87;65.73;98803.78;7399334;19;1093;-43
2023/03/11 04:16:07;;;;;;;;;;;;;;;14.84;65.53;98796.16;7399198;19;923;-43
2023/03/11 04:18:35;;;;;;;;;;;;;;;14.83;65.78;98789.13;7398644;19;967;-42
2023/03/11 04:21:09;;;;;;;;;;;;;;;14.94;65.39;98813.81;7399740;19;1026;-43
2023/03/11 04:23:37;;;;;;;;;;;;;;;15.03;64.89;98795.06;7398902;19;1873;-43
2023/03/11 04:26:14;;;;;;;;;;;;;;;15.08;65.27;98795.44;7398915;19;1096;-43
2023/03/11 04:28:42;;;;;;;;;;;;;;;15.04;65.00;98782.59;7399243;19;1010;-42
2023/03/11 04:31:12;;;;;;;;;;;;;;;14.97;64.98;98795.72;7399802;19;1026;-43
2023/03/11 04:33:40;;;;;;;;;;;;;;;14.96;65.11;98794.06;7399319;19;1023;-43
2023/03/11 04:36:11;;;;;;;;;;;;;;;14.93;65.34;98801.50;7398766;19;1133;-43
2023/03/11 04:38:41;;;;;;;;;;;;;;;14.90;65.51;98803.50;7399099;19;1053;-43
2023/03/11 04:41:11;;;;;;;;;;;;;;;14.86;65.75;98783.50;7399132;19;1031;-42
2023/03/11 04:43:39;;;;;;;;;;;;;;;14.89;65.40;98804.47;7397833;19;1842;-43
2023/03/11 04:46:08;;;;;;;;;;;;;;;14.85;65.60;98797.78;7398295;19;1121;-43
2023/03/11 04:48:36;;;;;;;;;;;;;;;14.83;65.88;98797.13;7398319;19;1870;-43
2023/03/11 04:51:04;;;;;;;;;;;;;;;14.79;65.67;98793.09;7398153;19;1141;-43
2023/03/11 04:53:35;;;;;;;;;;;;;;;14.83;65.75;98785.66;7398001;19;1118;-43
2023/03/11 04:56:03;;;;;;;;;;;;;;;14.82;65.84;98778.66;7398857;19;1034;-43
2023/03/11 04:58:32;;;;;;;;;;;;;;;14.83;65.64;98780.31;7397921;19;1043;-43
2023/03/11 05:01:01;;;;;;;;;;;;;;;14.94;65.17;98781.88;7397839;19;1125;-43
2023/03/11 05:03:29;;;;;;;;;;;;;;;14.96;65.09;98790.53;7398278;19;1858;-42
2023/03/11 05:05:59;;;;;;;;;;;;;;;14.98;65.22;98783.22;7397042;19;1349;-43
2023/03/11 05:08:27;;;;;;;;;;;;;;;14.95;65.36;98784.38;7397848;19;1063;-43
2023/03/11 05:10:58;;;;;;;;;;;;;;;14.90;65.35;98786.66;7398506;19;1034;-43
2023/03/11 05:13:26;;;;;;;;;;;;;;;14.88;65.37;98793.97;7398329;19;1034;-43
2023/03/11 05:15:56;;;;;;;;;;;;;;;14.84;65.80;98797.94;7397392;19;1035;-43
2023/03/11 05:18:24;;;;;;;;;;;;;;;14.86;65.34;98803.94;7397365;19;1141;-43
2023/03/11 05:20:52;;;;;;;;;;;;;;;14.86;65.26;98802.16;7397255;19;1055;-42
2023/03/11 05:23:21;;;;;;;;;;;;;;;14.86;65.61;98817.25;7397011;19;1846;-43
2023/03/11 05:25:50;;;;;;;;;;;;;;;14.86;65.33;98811.94;7397143;19;1034;-43
2023/03/11 05:28:22;;;;;;;;;;;;;;;14.83;65.44;98813.09;7397176;19;983;-43
2023/03/11 05:30:50;;;;;;;;;;;;;;;14.84;65.54;98811.25;7404808;19;1018;-43
2023/03/11 05:33:18;;;;;;;;;;;;;;;14.93;65.22;98815.66;7405609;19;1014;-42
2023/03/11 05:35:47;;;;;;;;;;;;;;;15.04;64.74;98818.06;7404609;19;1102;-43
2023/03/11 05:38:15;;;;;;;;;;;;;;;15.05;64.74;98819.72;7405499;19;1022;-43
2023/03/11 05:40:49;;;;;;;;;;;;;;;14.99;65.01;98799.03;7405324;19;975;-43
2023/03/11 05:43:17;;;;;;;;;;;;;;;14.94;65.18;98804.03;7404328;19;1043;-43
2023/03/11 05:45:48;;;;;;;;;;;;;;;14.94;65.52;98819.13;7401316;19;1839;-42
2023/03/11 05:48:17;;;;;;;;;;;;;;;14.90;65.41;98819.47;7404940;19;1191;-43
2023/03/11 05:50:45;;;;;;;;;;;;;;;14.88;65.69;98810.81;7404123;19;1125;-43
2023/03/11 05:53:14;;;;;;;;;;;;;;;14.86;65.54;98812.78;7403887;19;1121;-43
2023/03/11 05:55:42;;;;;;;;;;;;;;;14.82;65.49;98818.56;7403917;19;1110;-43
2023/03/11 05:58:12;;;;;;;;;;;;;;;14.84;65.66;98824.56;7403910;19;1348;-43
2023/03/11 06:00:40;;;;;;;;;;;;;;;14.84;65.79;98819.22;7403790;19;1354;-43
2023/03/11 06:03:11;;;;;;;;;;;;;;;14.83;65.67;98817.56;7404133;19;1061;-43
2023/03/11 06:05:45;;;;;;;;;;;;;;;14.84;65.65;98821.91;7401708;19;1849;-43
2023/03/11 06:08:14;;;;;;;;;;;;;;;14.93;65.17;98815.66;7404443;19;1034;-43
2023/03/11 06:10:44;;;;;;;;;;;;;;;14.98;65.06;98817.81;7403635;19;1125;-43
2023/03/11 06:13:12;;;;;;;;;;;;;;;15.00;65.07;98824.69;7404442;19;1030;-42
2023/03/11 06:15:41;;;;;;;;;;;;;;;14.97;65.26;98835.63;7403326;19;1047;-43
2023/03/11 06:18:12;;;;;;;;;;;;;;;14.90;65.45;98834.56;7403180;19;1070;-43
2023/03/11 06:20:40;;;;;;;;;;;;;;;14.88;65.77;98833.91;7403153;19;1137;-42
2023/03/11 06:23:08;;;;;;;;;;;;;;;14.86;65.69;98855.38;7403944;19;1185;-43
2023/03/11 06:25:37;;;;;;;;;;;;;;;14.85;65.62;98837.72;7401308;19;1861;-43
2023/03/11 06:28:06;;;;;;;;;;;;;;;14.86;65.88;98846.53;7403009;19;979;-42
2023/03/11 06:30:35;;;;;;;;;;;;;;;14.89;65.57;98852.38;7403337;19;1239;-43
2023/03/11 06:33:04;;;;;;;;;;;;;;;14.87;65.78;98826.91;7402804;19;1038;-43
2023/03/11 06:35:36;;;;;;;;;;;;;;;14.88;65.52;98848.06;7402609;19;1062;-42
2023/03/11 06:38:06;;;;;;;;;;;;;;;14.90;65.45;98850.53;7403467;19;1026;-43
2023/03/11 06:40:36;;;;;;;;;;;;;;;14.86;65.68;98854.50;7401799;19;1051;-43
2023/03/11 06:43:07;;;;;;;;;;;;;;;14.88;65.63;98853.38;7402919;19;1026;-43
2023/03/11 06:45:35;;;;;;;;;;;;;;;15.03;65.35;98856.31;7400470;19;1846;-43
2023/03/11 06:48:03;;;;;;;;;;;;;;;15.07;64.97;98852.34;7402346;19;1166;-43
2023/03/11 06:50:35;;;;;;;;;;;;;;;15.03;65.07;98840.31;7402199;19;1118;-43
2023/03/11 06:53:05;;;;;;;;;;;;;;;15.03;65.08;98850.16;7402075;19;1031;-43
2023/03/11 06:55:33;;;;;;;;;;;;;;;14.92;65.48;98827.28;7401977;19;1085;-42
2023/03/11 06:58:03;;;;;;;;;;;;;;;14.93;65.27;98844.09;7401971;19;1055;-43
2023/03/11 07:00:31;;;;;;;;;;;;;;;14.89;65.33;98843.56;7402343;19;1209;-43
2023/03/11 07:03:02;;;;;;;;;;;;;;;14.89;65.50;98827.59;7402304;19;1145;-43
2023/03/11 07:05:31;;;;;;;;;;;;;;;14.91;65.38;98849.56;7399867;19;1847;-43
2023/03/11 07:08:06;;;;;;;;;;;;;;;14.91;65.29;98847.72;7399343;19;1489;-42
2023/03/11 07:10:35;;;;;;;;;;;;;;;14.94;65.33;98861.72;7401471;19;1059;-43
2023/03/11 07:13:03;;;;;;;;;;;;;;;14.90;65.43;98855.88;7401528;19;1050;-42
2023/03/11 07:15:33;;;;;;;;;;;;;;;14.94;65.48;98849.28;7401370;19;1043;-43
2023/03/11 07:18:01;;;;;;;;;;;;;;;14.95;65.22;98853.59;7401265;19;1133;-43
2023/03/11 07:20:30;;;;;;;;;;;;;;;14.87;65.53;98857.03;7401191;19;1054;-43
2023/03/11 07:22:58;;;;;;;;;;;;;;;14.88;65.40;98863.16;7402031;19;1037;-43
2023/03/11 07:25:30;;;;;;;;;;;;;;;14.94;65.34;98861.72;7399458;19;1848;-43
2023/03/11 07:27:59;;;;;;;;;;;;;;;15.05;65.13;98856.97;7400932;19;1023;-43
2023/03/11 07:30:27;;;;;;;;;;;;;;;15.07;64.70;98857.66;7400818;19;1125;-43
2023/03/11 07:32:55;;;;;;;;;;;;;;;15.06;64.94;98839.16;7400712;19;1164;-43
2023/03/11 07:35:23;;;;;;;;;;;;;;;15.09;65.18;98868.16;7400572;19;1125;-43
2023/03/11 07:37:52;;;;;;;;;;;;;;;15.08;64.76;98851.34;7400549;19;1141;-43
2023/03/11 07:40:20;;;;;;;;;;;;;;;15.04;65.11;98844.69;7400474;19;1027;-43
2023/03/11 07:42:51;;;;;;;;;;;;;;;15.15;64.85;98861.38;7400464;19;1079;-43
2023/03/11 07:45:20;;;;;;;;;;;;;;;15.07;64.98;98852.34;7399998;19;1837;-43
2023/03/11 07:47:49;;;;;;;;;;;;;;;15.08;64.65;98846.03;7400274;19;1046;-43
2023/03/11 07:50:21;;;;;;;;;;;;;;;15.05;64.66;98845.50;7400179;19;1113;-43
2023/03/11 07:52:49;;;;;;;;;;;;;;;15.08;64.96;98848.69;7398420;19;1011;-43
2023/03/11 07:55:18;;;;;;;;;;;;;;;15.04;64.87;98826.03;7400166;19;1209;-43
2023/03/11 07:57:51;;;;;;;;;;;;;;;15.05;64.91;98833.03;7400082;19;1093;-43
2023/03/11 08:00:19;;;;;;;;;;;;;;;15.03;64.86;98808.38;7400756;19;1042;-43
2023/03/11 08:02:48;;;;;;;;;;;;;;;15.07;64.83;98847.00;7399794;19;1050;-43
2023/03/11 08:05:19;;;;;;;;;;;;;;;15.04;64.76;98794.09;7398605;19;1842;-43
2023/03/11 08:07:48;;;;;;;;;;;;;;;15.06;64.53;98816.06;7399059;19;1155;-43
2023/03/11 08:10:19;;;;;;;;;;;;;;;15.09;64.95;98813.06;7399478;19;1099;-43
2023/03/11 08:12:52;;;;;;;;;;;;;;;15.07;64.77;98824.88;7400172;19;967;-43
2023/03/11 08:15:21;;;;;;;;;;;;;;;15.13;64.95;98828.75;7400186;19;1046;-43
2023/03/11 08:17:50;;;;;;;;;;;;;;;15.19;64.37;98806.81;7399206;19;1042;-43
2023/03/11 08:20:18;;;;;;;;;;;;;;;15.32;64.10;98800.06;7399117;19;1050;-43
2023/03/11 08:22:48;;;;;;;;;;;;;;;15.34;64.01;98805.22;7399105;19;975;-43
2023/03/11 08:25:17;;;;;;;;;;;;;;;15.38;64.04;98817.25;7398145;19;1863;-42
2023/03/11 08:27:45;;;;;;;;;;;;;;;15.32;64.01;98812.53;7399942;19;1050;-43
2023/03/11 08:30:17;;;;;;;;;;;;;;;15.28;64.46;98801.38;7399541;19;1030;-43
2023/03/11 08:32:46;;;;;;;;;;;;;;;15.28;64.11;98805.88;7398307;19;896;-43
2023/03/11 08:35:14;;;;;;;;;;;;;;;15.25;64.34;98795.53;7398704;19;1050;-43
2023/03/11 08:37:42;;;;;;;;;;;;;;;15.21;64.23;98799.50;7398638;19;1046;-43
2023/03/11 08:40:13;;;;;;;;;;;;;;;15.16;64.80;98796.47;7398517;19;1038;-43
2023/03/11 08:42:42;;;;;;;;;;;;;;;15.13;64.64;98778.16;7399045;19;1037;-43
2023/03/11 08:45:11;;;;;;;;;;;;;;;15.16;64.58;98781.34;7397705;19;2158;-43
2023/03/11 08:47:42;;;;;;;;;;;;;;;15.16;64.32;98775.16;7399065;19;979;-43
2023/03/11 08:50:15;;;;;;;;;;;;;;;15.30;63.99;98777.25;7398979;19;1022;-42
2023/03/11 08:52:44;;;;;;;;;;;;;;;15.28;63.97;98787.22;7398664;19;1006;-43
2023/03/11 08:55:15;;;;;;;;;;;;;;;15.31;64.12;98784.22;7398025;19;1113;-43
2023/03/11 08:57:43;;;;;;;;;;;;;;;15.33;63.96;98768.94;7398105;19;1082;-43
2023/03/11 09:00:13;;;;;;;;;;;;;;;15.36;63.85;98775.75;7397894;19;1109;-43
2023/03/11 09:02:46;;;;;;;;;;;;;;;15.28;64.43;98774.75;7398481;19;1054;-42
2023/03/11 09:05:16;;;;;;;;;;;;;;;15.24;64.05;98773.41;7397052;19;1840;-43
2023/03/11 09:07:44;;;;;;;;;;;;;;;15.21;64.28;98778.19;7397022;19;1141;-43
2023/03/11 09:10:13;;;;;;;;;;;;;;;15.20;64.25;98755.22;7397636;19;1055;-43
2023/03/11 09:12:42;;;;;;;;;;;;;;;15.23;64.74;98765.56;7398213;19;1034;-43
2023/03/11 09:15:11;;;;;;;;;;;;;;;15.17;64.50;98756.38;7397523;19;1073;-43
2023/03/11 09:17:40;;;;;;;;;;;;;;;15.16;64.41;98757.38;7397437;19;1103;-43
2023/03/11 09:20:17;;;;;;;;;;;;;;;15.15;64.65;98755.72;7397350;19;1319;-43
2023/03/11 09:22:45;;;;;;;;;;;;;;;15.14;64.64;98748.72;7397286;19;1129;-43
2023/03/11 09:25:14;;;;;;;;;;;;;;;15.19;64.64;98759.72;7396604;19;1842;-43
2023/03/11 09:27:43;;;;;;;;;;;;;;;15.16;64.86;98751.22;7397253;19;1121;-43
2023/03/11 09:30:12;;;;;;;;;;;;;;;15.18;64.55;98762.53;7397820;19;1034;-43
2023/03/11 09:32:46;;;;;;;;;;;;;;;15.19;64.54;98761.56;7397119;19;1031;-43
2023/03/11 09:35:17;;;;;;;;;;;;;;;15.20;64.80;98752.56;7397130;19;1121;-42
2023/03/11 09:37:45;;;;;;;;;;;;;;;15.16;64.56;98751.22;7396949;19;968;-43
2023/03/11 09:40:17;;;;;;;;;;;;;;;15.18;64.44;98741.22;7396744;19;1059;-43
2023/03/11 09:42:48;;;;;;;;;;;;;;;15.16;64.47;98743.22;7396884;19;1101;-43
2023/03/11 09:45:18;;;;;;;;;;;;;;;15.14;64.88;98738.09;7396216;19;1842;-43
2023/03/11 09:47:57;;;;;;;;;;;;;;;15.11;64.76;98733.88;7397223;19;1033;-43
2023/03/11 09:50:34;;;;;;;;;;;;;;;15.11;64.60;98739.22;7396613;19;986;-43
2023/03/11 09:53:13;;;;;;;;;;;;;;;15.08;64.92;98731.56;7397409;19;967;-43
2023/03/11 09:55:44;;;;;;;;;;;;;;;15.09;64.87;98743.03;7396409;19;1078;-43
2023/03/11 09:58:15;;;;;;;;;;;;;;;15.08;64.64;98736.03;7396454;19;1097;-43
2023/03/11 10:00:44;;;;;;;;;;;;;;;15.09;65.12;98735.88;7396876;19;1030;-43
2023/03/11 10:03:19;;;;;;;;;;;;;;;15.13;64.90;98749.72;7396490;19;1083;-43
2023/03/11 10:05:50;;;;;;;;;;;;;;;15.17;64.79;98751.06;7395605;19;1850;-43
2023/03/11 10:08:24;;;;;;;;;;;;;;;15.19;64.53;98734.94;7396167;19;1024;-43
2023/03/11 10:10:58;;;;;;;;;;;;;;;15.23;64.51;98745.09;7396608;19;959;-43
2023/03/11 10:13:33;;;;;;;;;;;;;;;15.22;64.24;98727.47;7396847;19;1031;-43
2023/03/11 10:16:06;;;;;;;;;;;;;;;15.26;64.45;98728.81;7400162;19;1043;-43
2023/03/11 10:18:42;;;;;;;;;;;;;;;15.28;64.34;98723.31;7403839;19;1049;-43
2023/03/11 10:21:17;;;;;;;;;;;;;;;15.30;64.14;98721.34;7404009;19;952;-43
2023/03/11 10:23:56;;;;;;;;;;;;;;;15.23;64.41;98715.78;7403070;19;1122;-43
2023/03/11 10:26:31;;;;;;;;;;;;;;;15.29;64.44;98709.81;7401211;19;1855;-43
2023/03/11 10:29:01;;;;;;;;;;;;;;;15.29;64.22;98712.50;7402908;19;980;-43
2023/03/11 10:31:33;;;;;;;;;;;;;;;15.31;64.55;98693.69;7403252;19;983;-43
2023/03/11 10:34:04;;;;;;;;;;;;;;;15.29;64.12;98709.00;7402775;19;983;-43
2023/03/11 10:36:39;;;;;;;;;;;;;;;15.28;64.58;98708.19;7402692;19;1145;-43
2023/03/11 10:39:08;;;;;;;;;;;;;;;15.30;64.18;98716.84;7402833;19;919;-43
2023/03/11 10:41:43;;;;;;;;;;;;;;;15.29;64.48;98696.50;7403305;19;1026;-43
2023/03/11 10:44:14;;;;;;;;;;;;;;;15.27;64.19;98698.50;7402371;19;1087;-43
2023/03/11 10:46:42;;;;;;;;;;;;;;;15.24;64.59;98688.19;7401404;19;1861;-43
2023/03/11 10:49:14;;;;;;;;;;;;;;;15.21;64.66;98685.00;7403161;19;1010;-43
2023/03/11 10:51:49;;;;;;;;;;;;;;;15.20;64.28;98688.66;7402100;19;1023;-43
2023/03/11 10:54:25;;;;;;;;;;;;;;;15.19;64.55;98679.03;7402753;19;1019;-43
2023/03/11 10:56:57;;;;;;;;;;;;;;;15.18;64.67;98678.19;7401933;19;1103;-43
2023/03/11 10:59:27;;;;;;;;;;;;;;;15.18;64.62;98680.00;7402701;19;1054;-43
2023/03/11 11:01:57;;;;;;;;;;;;;;;15.14;64.60;98670.66;7402367;19;1876;-43
2023/03/11 11:04:29;;;;;;;;;;;;;;;15.16;64.80;98674.88;7401553;19;995;-43
2023/03/11 11:07:20;;;;;;;;;;;;;;;15.16;64.67;98687.31;7399354;19;1862;-43
2023/03/11 11:09:49;;;;;;;;;;;;;;;15.13;64.79;98659.19;7403177;19;1664;-42
2023/03/11 11:12:18;;;;;;;;;;;;;;;15.16;64.86;98674.88;7402169;19;1688;-42
2023/03/11 11:14:54;;;;;;;;;;;;;;;15.22;64.49;98662.69;7404838;19;1392;-43
2023/03/11 11:17:25;;;;;;;;;;;;;;;16.07;62.71;98667.84;7404147;19;1057;-43
2023/03/11 11:19:55;;;;;;;;;;;;;;;17.37;59.34;98665.78;7401352;19;946;-43
2023/03/11 11:22:27;;;;;;;;;;;;;;;18.08;57.01;98654.94;7401937;19;1030;-42
2023/03/11 11:24:57;;;;;;;;;;;;;;;18.48;56.25;98656.41;7404623;19;1667;-43
2023/03/11 11:27:29;;;;;;;;;;;;;;;18.40;56.24;98650.28;7399911;19;1845;-43
2023/03/11 11:30:16;;;;;;;;;;;;;;;18.53;56.32;98649.66;7400756;19;1073;-43
2023/03/11 11:32:45;;;;;;;;;;;;;;;18.90;55.41;98646.06;7401089;19;960;-43
2023/03/11 11:35:14;;;;;;;;;;;;;;;18.90;55.12;98662.16;7402065;19;1609;-43
2023/03/11 11:37:48;;;;;;;;;;;;;;;18.34;56.74;98657.19;7405476;19;967;-43
2023/03/11 11:40:24;;;;;;;;;;;;;;;18.08;57.57;98657.59;7403149;19;2103;-43
2023/03/11 11:43:02;;;;;;;;;;;;;;;18.15;57.44;98652.38;7400291;19;1069;-43
2023/03/11 11:45:35;;;;;;;;;;;;;;;18.25;57.27;98653.78;7404610;19;1851;-43
2023/03/11 11:48:07;;;;;;;;;;;;;;;18.21;57.12;98651.66;7401063;19;1018;-43
2023/03/11 11:50:38;;;;;;;;;;;;;;;18.10;57.80;98655.56;7401331;19;2105;-43
2023/03/11 11:53:13;;;;;;;;;;;;;;;18.19;57.35;98653.69;7400156;19;1285;-43
2023/03/11 11:55:46;;;;;;;;;;;;;;;18.37;56.80;98650.66;7399973;19;1051;-44
2023/03/11 11:58:14;;;;;;;;;;;;;;;18.39;56.87;98657.47;7400787;19;1770;-43
2023/03/11 12:00:46;;;;;;;;;;;;;;;18.33;56.88;98652.84;7402652;19;1522;-43
2023/03/11 12:03:29;;;;;;;;;;;;;;;18.19;57.61;98657.19;7403769;19;1950;-43
2023/03/11 12:06:00;;;;;;;;;;;;;;;18.26;57.03;98666.16;7398822;19;1857;-43
2023/03/11 12:08:36;;;;;;;;;;;;;;;17.68;58.67;98675.59;7401222;19;1845;-43
2023/03/11 12:11:07;;;;;;;;;;;;;;;17.27;59.88;98668.69;7399886;19;981;-43
2023/03/11 12:13:54;;;;;;;;;;;;;;;17.06;60.83;98677.28;7399825;19;1879;-43
2023/03/11 12:16:29;;;;;;;;;;;;;;;16.93;60.89;98669.03;7403592;19;979;-43
2023/03/11 12:19:01;;;;;;;;;;;;;;;16.85;60.87;98672.53;7402478;19;1467;-43
2023/03/11 12:21:36;;;;;;;;;;;;;;;16.78;61.13;98676.03;7403502;19;1820;-43
2023/03/11 12:24:13;;;;;;;;;;;;;;;16.74;61.31;98680.06;7403459;19;979;-43
2023/03/11 12:26:45;;;;;;;;;;;;;;;16.80;61.22;98679.38;7398498;19;1847;-43
2023/03/11 12:29:20;;;;;;;;;;;;;;;16.82;61.31;98685.41;7399627;19;966;-43
2023/03/11 12:31:49;;;;;;;;;;;;;;;16.75;61.48;98671.03;7398879;19;986;-43
2023/03/11 12:34:21;;;;;;;;;;;;;;;16.68;61.54;98682.41;7399641;19;991;-43
2023/03/11 12:36:51;;;;;;;;;;;;;;;16.66;61.78;98683.59;7398604;19;1042;-43
2023/03/11 12:39:27;;;;;;;;;;;;;;;16.80;61.55;98696.22;7398496;19;1641;-43
2023/03/11 12:42:16;;;;;;;;;;;;;;;16.80;61.57;98680.19;7401441;19;1720;-43
2023/03/11 12:44:47;;;;;;;;;;;;;;;16.61;61.57;98673.44;7397842;19;1994;-43
2023/03/11 12:47:23;;;;;;;;;;;;;;;16.52;62.22;98666.44;7398121;19;1856;-43
2023/03/11 12:49:53;;;;;;;;;;;;;;;16.69;61.85;98673.41;7399087;19;1003;-43
2023/03/11 12:52:27;;;;;;;;;;;;;;;16.87;61.18;98665.19;7399148;19;1054;-43
2023/03/11 12:55:11;;;;;;;;;;;;;;;16.79;61.61;98672.34;7398913;19;1077;-43
2023/03/11 12:57:50;;;;;;;;;;;;;;;16.60;61.71;98690.44;7398091;19;1866;-43
2023/03/11 13:00:26;;;;;;;;;;;;;;;16.53;62.37;98675.28;7397985;19;1042;-43
2023/03/11 13:03:12;;;;;;;;;;;;;;;16.77;61.55;98682.38;7398427;19;1006;-43
2023/03/11 13:05:48;;;;;;;;;;;;;;;16.90;61.30;98664.00;7398083;19;1810;-43
2023/03/11 13:08:18;;;;;;;;;;;;;;;16.74;61.63;98678.22;7398626;19;1046;-43
2023/03/11 13:10:47;;;;;;;;;;;;;;;16.67;61.70;98690.56;7398454;19;971;-43
2023/03/11 13:13:32;;;;;;;;;;;;;;;16.72;61.77;98690.06;7398537;19;987;-43
2023/03/11 13:16:18;;;;;;;;;;;;;;;16.91;61.20;98681.72;7397847;19;1156;-43